createdAt,value
2022-10-25T00:00:33.899Z,0.00
2022-10-25T00:01:33.977Z,0.00
2022-10-25T00:02:33.921Z,0.00
2022-10-25T00:03:33.850Z,0.00
2022-10-25T00:04:33.868Z,0.00
2022-10-25T00:05:33.861Z,0.00
2022-10-25T00:06:33.804Z,0.00
2022-10-25T00:07:33.797Z,0.00
2022-10-25T00:08:33.775Z,0.00
2022-10-25T00:09:33.766Z,0.00
2022-10-25T00:10:33.746Z,0.00
2022-10-25T00:11:33.742Z,0.00
2022-10-25T00:12:33.734Z,0.00
2022-10-25T00:13:33.709Z,0.00
2022-10-25T00:14:33.685Z,0.00
2022-10-25T00:15:33.670Z,0.00
2022-10-25T00:16:33.694Z,0.00
2022-10-25T00:17:33.643Z,0.00
2022-10-25T00:18:33.662Z,0.00
2022-10-25T00:19:33.612Z,0.00
2022-10-25T00:20:33.631Z,0.00
2022-10-25T00:21:33.591Z,0.00
2022-10-25T00:22:33.596Z,0.00
2022-10-25T00:23:33.584Z,0.00
2022-10-25T00:24:33.564Z,0.00
2022-10-25T00:25:33.550Z,0.00
2022-10-25T00:26:33.534Z,0.00
2022-10-25T00:27:33.515Z,0.00
2022-10-25T00:28:33.475Z,0.00
2022-10-25T00:29:33.473Z,0.00
2022-10-25T00:30:33.483Z,0.00
2022-10-25T00:31:33.434Z,0.00
2022-10-25T00:32:33.418Z,0.00
2022-10-25T00:33:33.407Z,0.00
2022-10-25T00:34:33.417Z,0.00
2022-10-25T00:35:33.405Z,0.00
2022-10-25T00:36:33.359Z,0.00
2022-10-25T00:37:33.405Z,0.00
2022-10-25T00:38:33.330Z,0.00
2022-10-25T00:39:33.318Z,0.00
2022-10-25T00:40:33.297Z,0.00
2022-10-25T00:41:33.306Z,0.00
2022-10-25T00:42:33.271Z,0.00
2022-10-25T00:43:33.250Z,0.00
2022-10-25T00:44:33.240Z,0.00
2022-10-25T00:45:33.220Z,0.00
2022-10-25T00:46:33.216Z,0.00
2022-10-25T00:47:33.201Z,0.00
2022-10-25T00:48:33.185Z,0.00
2022-10-25T00:49:33.166Z,0.00
2022-10-25T00:50:33.151Z,0.00
2022-10-25T00:51:33.155Z,0.00
2022-10-25T00:52:33.160Z,0.00
2022-10-25T00:53:33.107Z,0.00
2022-10-25T00:54:33.089Z,0.00
2022-10-25T00:55:33.069Z,0.00
2022-10-25T00:56:33.063Z,0.00
2022-10-25T00:57:33.042Z,0.00
2022-10-25T00:58:33.100Z,0.00
2022-10-25T00:59:33.012Z,0.00
2022-10-25T01:00:32.997Z,0.00
2022-10-25T01:01:33.063Z,0.00
2022-10-25T01:02:33.105Z,0.00
2022-10-25T01:03:32.961Z,0.00
2022-10-25T01:04:32.940Z,0.00
2022-10-25T01:05:32.928Z,0.00
2022-10-25T01:06:32.916Z,0.00
2022-10-25T01:07:32.901Z,0.00
2022-10-25T01:08:32.903Z,0.00
2022-10-25T01:09:32.863Z,0.00
2022-10-25T01:10:32.855Z,0.00
2022-10-25T01:11:32.843Z,0.00
2022-10-25T01:12:32.829Z,0.00
2022-10-25T01:13:32.858Z,0.00
2022-10-25T01:14:32.807Z,0.00
2022-10-25T01:15:32.780Z,0.00
2022-10-25T01:16:32.765Z,0.00
2022-10-25T01:17:32.754Z,0.00
2022-10-25T01:18:32.728Z,0.00
2022-10-25T01:20:32.741Z,0.00
2022-10-25T01:21:32.685Z,0.00
2022-10-25T01:22:32.673Z,0.00
2022-10-25T01:23:32.678Z,0.00
2022-10-25T01:24:32.646Z,0.00
2022-10-25T01:25:32.626Z,0.00
2022-10-25T01:26:32.746Z,0.00
2022-10-25T01:27:32.653Z,0.00
2022-10-25T01:28:32.923Z,0.00
2022-10-25T01:29:32.567Z,0.00
2022-10-25T01:30:32.564Z,0.00
2022-10-25T01:31:32.537Z,0.00
2022-10-25T01:32:32.581Z,0.00
2022-10-25T01:33:32.503Z,0.00
2022-10-25T01:34:32.503Z,0.00
2022-10-25T01:35:32.539Z,0.00
2022-10-25T01:36:32.461Z,0.00
2022-10-25T01:37:32.466Z,0.00
2022-10-25T01:38:32.434Z,0.00
2022-10-25T01:39:32.416Z,0.00
2022-10-25T01:40:32.422Z,0.00
2022-10-25T01:41:32.570Z,0.00
2022-10-25T01:42:32.411Z,0.00
2022-10-25T01:43:32.352Z,0.00
2022-10-25T01:44:32.406Z,0.00
2022-10-25T01:45:32.423Z,0.00
2022-10-25T01:46:32.362Z,0.00
2022-10-25T01:47:32.351Z,0.00
2022-10-25T01:48:32.285Z,0.00
2022-10-25T01:49:32.262Z,0.00
2022-10-25T01:50:32.252Z,0.00
2022-10-25T01:51:32.251Z,0.00
2022-10-25T01:52:32.225Z,0.00
2022-10-25T01:53:32.238Z,0.00
2022-10-25T01:54:32.189Z,0.00
2022-10-25T01:55:32.173Z,0.00
2022-10-25T01:56:32.164Z,0.00
2022-10-25T01:57:32.175Z,0.00
2022-10-25T01:58:32.138Z,0.00
2022-10-25T01:59:32.145Z,0.00
2022-10-25T02:00:32.129Z,0.00
2022-10-25T02:01:32.278Z,0.00
2022-10-25T02:02:32.084Z,0.00
2022-10-25T02:03:32.056Z,0.00
2022-10-25T02:04:32.103Z,0.00
2022-10-25T02:05:32.055Z,0.00
2022-10-25T02:06:32.035Z,0.00
2022-10-25T02:07:32.002Z,0.00
2022-10-25T02:08:31.989Z,0.00
2022-10-25T02:09:31.971Z,0.00
2022-10-25T02:10:31.959Z,0.00
2022-10-25T02:11:31.943Z,0.00
2022-10-25T02:12:31.927Z,0.00
2022-10-25T02:13:31.937Z,0.00
2022-10-25T02:14:31.925Z,0.00
2022-10-25T02:15:31.896Z,0.00
2022-10-25T02:16:31.865Z,0.00
2022-10-25T02:17:31.851Z,0.00
2022-10-25T02:19:31.869Z,0.00
2022-10-25T02:20:31.810Z,0.00
2022-10-25T02:21:31.789Z,0.00
2022-10-25T02:22:31.784Z,0.00
2022-10-25T02:23:31.784Z,0.00
2022-10-25T02:24:31.771Z,0.00
2022-10-25T02:25:31.745Z,0.00
2022-10-25T02:26:31.716Z,0.00
2022-10-25T02:27:31.702Z,0.00
2022-10-25T02:28:31.702Z,0.00
2022-10-25T02:29:31.695Z,0.00
2022-10-25T02:30:31.686Z,0.00
2022-10-25T02:31:31.665Z,0.00
2022-10-25T02:32:31.628Z,0.00
2022-10-25T02:33:31.626Z,0.00
2022-10-25T02:34:31.598Z,0.00
2022-10-25T02:35:31.591Z,0.00
2022-10-25T02:36:31.595Z,0.00
2022-10-25T02:37:31.553Z,0.00
2022-10-25T02:38:31.543Z,0.00
2022-10-25T02:39:31.905Z,0.00
2022-10-25T02:40:31.508Z,0.00
2022-10-25T02:41:31.549Z,0.00
2022-10-25T02:42:31.480Z,0.00
2022-10-25T02:43:31.467Z,0.00
2022-10-25T02:44:31.456Z,0.00
2022-10-25T02:45:31.437Z,0.00
2022-10-25T02:46:31.422Z,0.00
2022-10-25T02:47:31.486Z,0.00
2022-10-25T02:48:31.390Z,0.00
2022-10-25T02:49:31.372Z,0.00
2022-10-25T02:50:31.363Z,0.00
2022-10-25T02:51:31.368Z,0.00
2022-10-25T02:52:31.329Z,0.00
2022-10-25T02:53:31.317Z,0.00
2022-10-25T02:54:31.327Z,0.00
2022-10-25T02:55:31.290Z,0.00
2022-10-25T02:56:31.274Z,0.00
2022-10-25T02:57:31.266Z,0.00
2022-10-25T02:58:31.240Z,0.00
2022-10-25T02:59:31.250Z,0.00
2022-10-25T03:00:31.278Z,0.00
2022-10-25T03:01:31.311Z,0.00
2022-10-25T03:02:31.185Z,0.00
2022-10-25T03:03:31.170Z,0.00
2022-10-25T03:04:31.194Z,0.00
2022-10-25T03:05:31.143Z,0.00
2022-10-25T03:06:31.126Z,0.00
2022-10-25T03:07:31.106Z,0.00
2022-10-25T03:08:31.100Z,0.00
2022-10-25T03:09:31.109Z,0.00
2022-10-25T03:10:31.073Z,0.00
2022-10-25T03:11:31.100Z,0.00
2022-10-25T03:12:31.038Z,0.00
2022-10-25T03:13:31.027Z,0.00
2022-10-25T03:14:31.029Z,0.00
2022-10-25T03:15:30.991Z,0.00
2022-10-25T03:16:30.977Z,0.00
2022-10-25T03:17:30.963Z,0.00
2022-10-25T03:18:30.949Z,0.00
2022-10-25T03:19:30.929Z,0.00
2022-10-25T03:20:30.954Z,0.00
2022-10-25T03:21:30.904Z,0.00
2022-10-25T03:22:30.895Z,0.00
2022-10-25T03:23:30.870Z,0.00
2022-10-25T03:24:30.869Z,0.00
2022-10-25T03:25:30.847Z,0.00
2022-10-25T03:26:30.827Z,0.00
2022-10-25T03:27:30.819Z,0.00
2022-10-25T03:28:30.836Z,0.00
2022-10-25T03:29:30.811Z,0.00
2022-10-25T03:30:30.773Z,0.00
2022-10-25T03:31:30.763Z,0.00
2022-10-25T03:32:30.771Z,0.00
2022-10-25T03:34:30.747Z,0.00
2022-10-25T03:35:30.709Z,0.00
2022-10-25T03:36:30.683Z,0.00
2022-10-25T03:37:30.739Z,0.00
2022-10-25T03:38:30.658Z,0.00
2022-10-25T03:39:30.642Z,0.00
2022-10-25T03:40:30.624Z,0.00
2022-10-25T03:41:30.611Z,0.00
2022-10-25T03:42:30.600Z,0.00
2022-10-25T03:43:30.606Z,0.00
2022-10-25T03:44:30.619Z,0.00
2022-10-25T03:45:30.547Z,0.00
2022-10-25T03:46:30.539Z,0.00
2022-10-25T03:47:30.523Z,0.00
2022-10-25T03:48:30.529Z,0.00
2022-10-25T03:49:30.511Z,0.00
2022-10-25T03:50:30.507Z,0.00
2022-10-25T03:51:30.464Z,0.00
2022-10-25T03:52:30.461Z,0.00
2022-10-25T03:53:30.432Z,0.00
2022-10-25T03:54:30.425Z,0.00
2022-10-25T03:55:30.437Z,0.00
2022-10-25T03:56:30.389Z,0.00
2022-10-25T03:57:30.376Z,0.00
2022-10-25T03:58:30.364Z,0.00
2022-10-25T03:59:30.359Z,0.00
2022-10-25T04:00:30.451Z,0.00
2022-10-25T04:01:30.472Z,0.00
2022-10-25T04:02:30.313Z,0.00
2022-10-25T04:03:30.284Z,0.00
2022-10-25T04:04:30.275Z,0.00
2022-10-25T04:05:30.270Z,0.00
2022-10-25T04:06:30.297Z,0.00
2022-10-25T04:07:30.226Z,0.00
2022-10-25T04:08:30.227Z,0.00
2022-10-25T04:09:30.211Z,0.00
2022-10-25T04:10:30.189Z,0.00
2022-10-25T04:11:30.168Z,0.00
2022-10-25T04:12:30.228Z,0.00
2022-10-25T04:13:30.144Z,0.00
2022-10-25T04:14:30.128Z,0.00
2022-10-25T04:15:30.123Z,0.00
2022-10-25T04:16:30.109Z,0.00
2022-10-25T04:17:30.082Z,0.00
2022-10-25T04:18:30.084Z,0.00
2022-10-25T04:19:30.070Z,0.00
2022-10-25T04:20:30.045Z,0.00
2022-10-25T04:21:30.033Z,0.00
2022-10-25T04:22:30.038Z,0.00
2022-10-25T04:23:30.020Z,0.00
2022-10-25T04:24:30.015Z,0.00
2022-10-25T04:25:29.971Z,0.00
2022-10-25T04:26:29.952Z,0.00
2022-10-25T04:27:29.939Z,0.00
2022-10-25T04:28:29.919Z,0.00
2022-10-25T04:29:29.908Z,0.00
2022-10-25T04:30:31.275Z,0.00
2022-10-25T04:31:29.878Z,0.00
2022-10-25T04:32:29.866Z,0.00
2022-10-25T04:33:29.850Z,0.00
2022-10-25T04:34:29.863Z,0.00
2022-10-25T04:35:29.822Z,0.00
2022-10-25T04:36:29.831Z,0.00
2022-10-25T04:37:29.787Z,0.00
2022-10-25T04:38:29.777Z,0.00
2022-10-25T04:39:29.763Z,0.00
2022-10-25T04:40:29.774Z,0.00
2022-10-25T04:41:29.763Z,0.00
2022-10-25T04:42:29.717Z,0.00
2022-10-25T04:43:29.707Z,0.00
2022-10-25T04:44:29.691Z,0.00
2022-10-25T04:45:29.699Z,0.00
2022-10-25T04:46:29.664Z,0.00
2022-10-25T04:47:29.656Z,0.00
2022-10-25T04:48:29.628Z,0.00
2022-10-25T04:49:29.616Z,0.00
2022-10-25T04:50:29.660Z,0.00
2022-10-25T04:51:29.588Z,0.00
2022-10-25T04:52:29.571Z,0.00
2022-10-25T04:53:29.557Z,0.00
2022-10-25T04:54:29.541Z,0.00
2022-10-25T04:55:29.535Z,0.00
2022-10-25T04:56:29.560Z,0.00
2022-10-25T04:57:29.498Z,0.00
2022-10-25T04:58:31.439Z,0.00
2022-10-25T04:59:29.473Z,0.00
2022-10-25T05:00:29.453Z,0.00
2022-10-25T05:01:29.569Z,0.00
2022-10-25T05:02:29.452Z,0.00
2022-10-25T05:03:29.496Z,0.00
2022-10-25T05:04:29.394Z,0.00
2022-10-25T05:05:29.385Z,0.00
2022-10-25T05:06:29.396Z,0.00
2022-10-25T05:07:29.350Z,0.00
2022-10-25T05:08:29.338Z,0.00
2022-10-25T05:09:29.324Z,0.00
2022-10-25T05:10:29.306Z,0.00
2022-10-25T05:11:29.376Z,0.00
2022-10-25T05:12:29.274Z,0.00
2022-10-25T05:13:29.267Z,0.00
2022-10-25T05:14:29.247Z,0.00
2022-10-25T05:15:29.237Z,0.00
2022-10-25T05:16:29.223Z,0.00
2022-10-25T05:17:29.209Z,0.00
2022-10-25T05:18:29.194Z,0.00
2022-10-25T05:19:29.176Z,0.00
2022-10-25T05:20:29.182Z,0.00
2022-10-25T05:21:29.269Z,0.00
2022-10-25T05:22:29.191Z,0.00
2022-10-25T05:23:29.126Z,0.00
2022-10-25T05:24:29.102Z,0.00
2022-10-25T05:25:29.098Z,0.00
2022-10-25T05:26:29.077Z,0.00
2022-10-25T05:27:29.061Z,0.00
2022-10-25T05:28:29.084Z,0.00
2022-10-25T05:29:29.059Z,0.00
2022-10-25T05:30:29.026Z,0.00
2022-10-25T05:31:29.008Z,0.00
2022-10-25T05:32:29.009Z,0.00
2022-10-25T05:33:28.974Z,0.00
2022-10-25T05:34:28.959Z,0.00
2022-10-25T05:35:28.942Z,0.00
2022-10-25T05:36:28.934Z,0.00
2022-10-25T05:37:28.914Z,0.00
2022-10-25T05:38:28.904Z,0.00
2022-10-25T05:39:28.905Z,0.00
2022-10-25T05:40:28.869Z,0.00
2022-10-25T05:41:30.825Z,0.00
2022-10-25T05:42:28.839Z,0.00
2022-10-25T05:43:28.827Z,0.00
2022-10-25T05:44:28.850Z,4.00
2022-10-25T05:45:28.794Z,0.00
2022-10-25T05:46:28.785Z,4.00
2022-10-25T05:47:28.767Z,4.00
2022-10-25T05:48:28.755Z,0.00
2022-10-25T05:49:28.745Z,4.00
2022-10-25T05:50:28.802Z,4.00
2022-10-25T05:51:33.496Z,4.00
2022-10-25T05:52:28.694Z,8.00
2022-10-25T05:53:28.681Z,8.00
2022-10-25T05:54:28.674Z,12.00
2022-10-25T05:55:28.649Z,12.00
2022-10-25T05:56:28.657Z,12.00
2022-10-25T05:57:28.620Z,16.00
2022-10-25T05:58:28.630Z,16.00
2022-10-25T05:59:28.587Z,16.00
2022-10-25T06:00:28.685Z,20.00
2022-10-25T06:01:28.654Z,16.00
2022-10-25T06:02:28.590Z,16.00
2022-10-25T06:03:28.558Z,12.00
2022-10-25T06:04:28.518Z,12.00
2022-10-25T06:05:28.505Z,16.00
2022-10-25T06:06:28.493Z,16.00
2022-10-25T06:07:28.489Z,16.00
2022-10-25T06:08:28.459Z,20.00
2022-10-25T06:09:28.470Z,24.00
2022-10-25T06:10:28.480Z,28.00
2022-10-25T06:11:28.415Z,28.00
2022-10-25T06:12:28.440Z,28.00
2022-10-25T06:13:28.392Z,28.00
2022-10-25T06:14:28.367Z,32.00
2022-10-25T06:15:28.358Z,32.00
2022-10-25T06:16:28.339Z,32.00
2022-10-25T06:17:28.326Z,36.00
2022-10-25T06:18:28.334Z,64.00
2022-10-25T06:19:28.323Z,76.00
2022-10-25T06:20:28.384Z,92.00
2022-10-25T06:21:28.287Z,92.00
2022-10-25T06:22:28.252Z,96.00
2022-10-25T06:23:28.242Z,104.00
2022-10-25T06:24:28.292Z,104.00
2022-10-25T06:25:28.211Z,96.00
2022-10-25T06:26:28.198Z,96.00
2022-10-25T06:27:28.188Z,100.00
2022-10-25T06:28:28.162Z,108.00
2022-10-25T06:29:28.154Z,116.00
2022-10-25T06:30:28.266Z,108.00
2022-10-25T06:31:28.137Z,92.00
2022-10-25T06:32:28.131Z,80.00
2022-10-25T06:33:28.264Z,88.00
2022-10-25T06:34:28.103Z,104.00
2022-10-25T06:35:28.069Z,108.00
2022-10-25T06:36:28.058Z,112.00
2022-10-25T06:37:28.060Z,120.00
2022-10-25T06:38:28.021Z,124.00
2022-10-25T06:39:28.005Z,128.00
2022-10-25T06:40:28.003Z,140.00
2022-10-25T06:41:28.047Z,156.00
2022-10-25T06:42:28.022Z,152.00
2022-10-25T06:43:27.951Z,144.00
2022-10-25T06:44:27.929Z,116.00
2022-10-25T06:45:27.916Z,100.00
2022-10-25T06:46:27.908Z,112.00
2022-10-25T06:47:27.888Z,128.00
2022-10-25T06:48:27.892Z,128.00
2022-10-25T06:49:27.866Z,120.00
2022-10-25T06:50:27.842Z,136.00
2022-10-25T06:51:27.829Z,172.00
2022-10-25T06:52:27.811Z,172.00
2022-10-25T06:53:27.841Z,164.00
2022-10-25T06:54:27.825Z,156.00
2022-10-25T06:55:27.796Z,164.00
2022-10-25T06:56:27.754Z,188.00
2022-10-25T06:57:27.778Z,192.00
2022-10-25T06:58:27.748Z,196.00
2022-10-25T06:59:27.738Z,260.00
2022-10-25T07:00:27.713Z,352.00
2022-10-25T07:01:27.797Z,420.00
2022-10-25T07:02:27.839Z,428.00
2022-10-25T07:03:27.669Z,404.00
2022-10-25T07:04:27.658Z,384.00
2022-10-25T07:05:27.685Z,384.00
2022-10-25T07:06:27.720Z,364.00
2022-10-25T07:07:27.675Z,432.00
2022-10-25T07:08:27.597Z,400.00
2022-10-25T07:09:27.590Z,348.00
2022-10-25T07:10:27.552Z,352.00
2022-10-25T07:11:27.591Z,388.00
2022-10-25T07:12:27.584Z,392.00
2022-10-25T07:13:27.552Z,412.00
2022-10-25T07:14:27.500Z,428.00
2022-10-25T07:15:27.516Z,500.00
2022-10-25T07:16:27.505Z,600.00
2022-10-25T07:17:27.458Z,672.00
2022-10-25T07:18:27.437Z,704.00
2022-10-25T07:19:27.425Z,700.00
2022-10-25T07:20:27.535Z,844.00
2022-10-25T07:21:27.397Z,912.00
2022-10-25T07:22:27.378Z,1016.00
2022-10-25T07:23:27.364Z,968.00
2022-10-25T07:24:27.351Z,900.00
2022-10-25T07:25:27.336Z,976.00
2022-10-25T07:26:27.323Z,1008.00
2022-10-25T07:27:27.315Z,1148.00
2022-10-25T07:28:27.291Z,1268.00
2022-10-25T07:29:27.289Z,1176.00
2022-10-25T07:30:27.262Z,788.00
2022-10-25T07:31:27.297Z,748.00
2022-10-25T07:32:27.232Z,948.00
2022-10-25T07:33:27.232Z,1136.00
2022-10-25T07:34:27.217Z,1172.00
2022-10-25T07:35:27.193Z,1028.00
2022-10-25T07:36:27.182Z,956.00
2022-10-25T07:37:27.192Z,916.00
2022-10-25T07:38:28.020Z,924.00
2022-10-25T07:39:27.148Z,856.00
2022-10-25T07:40:27.117Z,656.00
2022-10-25T07:41:27.114Z,580.00
2022-10-25T07:42:27.115Z,640.00
2022-10-25T07:43:27.080Z,628.00
2022-10-25T07:44:27.064Z,688.00
2022-10-25T07:45:28.883Z,620.00
2022-10-25T07:46:27.036Z,500.00
2022-10-25T07:47:27.063Z,524.00
2022-10-25T07:48:27.017Z,640.00
2022-10-25T07:49:26.993Z,744.00
2022-10-25T07:50:27.006Z,1020.00
2022-10-25T07:51:26.965Z,1108.00
2022-10-25T07:52:26.946Z,988.00
2022-10-25T07:53:26.935Z,1012.00
2022-10-25T07:54:26.919Z,688.00
2022-10-25T07:55:26.903Z,392.00
2022-10-25T07:56:26.890Z,520.00
2022-10-25T07:57:26.879Z,496.00
2022-10-25T07:58:26.890Z,664.00
2022-10-25T07:59:26.851Z,696.00
2022-10-25T08:00:26.835Z,1008.00
2022-10-25T08:01:26.897Z,1196.00
2022-10-25T08:02:26.804Z,1176.00
2022-10-25T08:03:26.869Z,1288.00
2022-10-25T08:04:26.835Z,1000.00
2022-10-25T08:05:26.762Z,964.00
2022-10-25T08:06:26.750Z,760.00
2022-10-25T08:07:26.732Z,960.00
2022-10-25T08:08:26.723Z,1024.00
2022-10-25T08:09:37.806Z,968.00
2022-10-25T08:10:26.687Z,1240.00
2022-10-25T08:11:26.675Z,1212.00
2022-10-25T08:12:26.738Z,1556.00
2022-10-25T08:13:26.647Z,1612.00
2022-10-25T08:14:26.662Z,1500.00
2022-10-25T08:15:26.616Z,1548.00
2022-10-25T08:16:26.605Z,1188.00
2022-10-25T08:17:26.594Z,1092.00
2022-10-25T08:18:26.635Z,1212.00
2022-10-25T08:19:26.589Z,1296.00
2022-10-25T08:20:49.121Z,1416.00
2022-10-25T08:21:26.531Z,1608.00
2022-10-25T08:22:26.517Z,1304.00
2022-10-25T08:23:26.522Z,1152.00
2022-10-25T08:24:26.541Z,1172.00
2022-10-25T08:25:27.054Z,996.00
2022-10-25T08:26:26.485Z,992.00
2022-10-25T08:27:26.448Z,888.00
2022-10-25T08:28:26.435Z,1180.00
2022-10-25T08:29:26.417Z,1224.00
2022-10-25T08:30:26.411Z,1184.00
2022-10-25T08:31:26.391Z,1100.00
2022-10-25T08:32:26.385Z,1288.00
2022-10-25T08:33:26.359Z,1412.00
2022-10-25T08:34:28.424Z,1864.00
2022-10-25T08:35:26.343Z,1824.00
2022-10-25T08:36:26.315Z,1592.00
2022-10-25T08:37:26.306Z,1992.00
2022-10-25T08:38:26.289Z,1868.00
2022-10-25T08:39:26.276Z,1964.00
2022-10-25T08:40:26.265Z,1916.00
2022-10-25T08:41:26.253Z,1916.00
2022-10-25T08:42:26.237Z,1964.00
2022-10-25T08:43:26.217Z,1984.00
2022-10-25T08:44:26.203Z,1852.00
2022-10-25T08:45:26.235Z,2388.00
2022-10-25T08:46:26.174Z,2944.00
2022-10-25T08:47:26.172Z,2600.00
2022-10-25T08:48:26.151Z,2752.00
2022-10-25T08:49:26.136Z,2652.00
2022-10-25T08:50:26.116Z,2964.00
2022-10-25T08:51:26.105Z,2732.00
2022-10-25T08:52:26.092Z,2504.00
2022-10-25T08:53:26.078Z,2320.00
2022-10-25T08:54:26.059Z,2392.00
2022-10-25T08:55:26.065Z,2492.00
2022-10-25T08:56:26.033Z,2580.00
2022-10-25T08:57:26.019Z,2160.00
2022-10-25T08:58:26.016Z,1980.00
2022-10-25T08:59:26.061Z,2176.00
2022-10-25T09:00:25.978Z,2728.00
2022-10-25T09:01:26.097Z,2256.00
2022-10-25T09:02:26.063Z,1780.00
2022-10-25T09:03:25.933Z,2016.00
2022-10-25T09:04:25.921Z,2232.00
2022-10-25T09:05:25.945Z,2372.00
2022-10-25T09:06:25.903Z,1908.00
2022-10-25T09:07:25.879Z,1856.00
2022-10-25T09:08:25.867Z,1924.00
2022-10-25T09:09:25.851Z,1700.00
2022-10-25T09:10:26.053Z,1920.00
2022-10-25T09:11:25.922Z,2048.00
2022-10-25T09:12:25.817Z,1284.00
2022-10-25T09:13:25.852Z,1476.00
2022-10-25T09:14:25.781Z,2140.00
2022-10-25T09:15:25.858Z,2536.00
2022-10-25T09:16:26.035Z,1828.00
2022-10-25T09:17:25.748Z,1440.00
2022-10-25T09:18:25.744Z,1720.00
2022-10-25T09:19:25.716Z,2516.00
2022-10-25T09:20:25.727Z,2772.00
2022-10-25T09:21:25.684Z,2088.00
2022-10-25T09:22:25.692Z,1564.00
2022-10-25T09:23:25.743Z,1576.00
2022-10-25T09:24:25.647Z,2404.00
2022-10-25T09:25:25.625Z,2548.00
2022-10-25T09:26:25.671Z,2160.00
2022-10-25T09:27:25.641Z,1688.00
2022-10-25T09:28:25.589Z,1360.00
2022-10-25T09:29:25.611Z,1480.00
2022-10-25T09:30:25.708Z,2300.00
2022-10-25T09:31:25.804Z,2392.00
2022-10-25T09:32:25.684Z,2344.00
2022-10-25T09:33:25.579Z,2028.00
2022-10-25T09:34:25.504Z,1768.00
2022-10-25T09:35:25.518Z,1880.00
2022-10-25T09:36:25.474Z,1936.00
2022-10-25T09:37:25.468Z,2116.00
2022-10-25T09:38:25.865Z,1944.00
2022-10-25T09:39:25.429Z,2212.00
2022-10-25T09:40:25.676Z,2136.00
2022-10-25T09:41:25.451Z,1712.00
2022-10-25T09:42:25.400Z,1476.00
2022-10-25T09:43:25.374Z,1472.00
2022-10-25T09:44:25.367Z,1112.00
2022-10-25T09:45:25.360Z,1292.00
2022-10-25T09:46:25.347Z,1576.00
2022-10-25T09:47:25.349Z,1724.00
2022-10-25T09:48:25.307Z,1948.00
2022-10-25T09:49:25.363Z,1904.00
2022-10-25T09:50:25.292Z,1872.00
2022-10-25T09:51:25.267Z,1736.00
2022-10-25T09:52:25.273Z,1976.00
2022-10-25T09:53:25.237Z,2600.00
2022-10-25T09:54:25.227Z,2704.00
2022-10-25T09:55:25.238Z,2548.00
2022-10-25T09:56:25.209Z,2132.00
2022-10-25T09:57:25.226Z,1872.00
2022-10-25T09:58:25.187Z,1628.00
2022-10-25T09:59:25.160Z,1688.00
2022-10-25T10:00:25.155Z,1884.00
2022-10-25T10:01:25.273Z,1732.00
2022-10-25T10:02:25.241Z,1592.00
2022-10-25T10:03:25.130Z,1452.00
2022-10-25T10:04:25.084Z,1312.00
2022-10-25T10:05:25.068Z,1384.00
2022-10-25T10:06:25.090Z,1216.00
2022-10-25T10:07:25.045Z,1144.00
2022-10-25T10:08:25.062Z,1244.00
2022-10-25T10:09:25.015Z,1304.00
2022-10-25T10:10:25.004Z,1408.00
2022-10-25T10:11:24.992Z,1644.00
2022-10-25T10:12:25.022Z,1700.00
2022-10-25T10:13:24.961Z,1660.00
2022-10-25T10:14:24.946Z,1300.00
2022-10-25T10:15:24.931Z,1348.00
2022-10-25T10:16:24.917Z,1300.00
2022-10-25T10:17:24.910Z,1400.00
2022-10-25T10:18:25.094Z,1484.00
2022-10-25T10:19:24.990Z,1420.00
2022-10-25T10:20:25.570Z,1320.00
2022-10-25T10:21:24.854Z,1436.00
2022-10-25T10:22:24.840Z,1612.00
2022-10-25T10:23:24.910Z,1804.00
2022-10-25T10:24:24.897Z,2096.00
2022-10-25T10:25:24.867Z,2120.00
2022-10-25T10:26:24.784Z,2140.00
2022-10-25T10:27:24.764Z,1984.00
2022-10-25T10:28:24.808Z,1956.00
2022-10-25T10:29:24.747Z,2112.00
2022-10-25T10:30:24.723Z,2252.00
2022-10-25T10:31:24.710Z,2220.00
2022-10-25T10:32:24.702Z,2428.00
2022-10-25T10:33:24.691Z,2688.00
2022-10-25T10:34:24.732Z,2792.00
2022-10-25T10:35:24.655Z,2864.00
2022-10-25T10:36:24.642Z,2936.00
2022-10-25T10:37:24.627Z,3044.00
2022-10-25T10:38:24.618Z,3140.00
2022-10-25T10:39:24.597Z,3292.00
2022-10-25T10:40:24.604Z,3044.00
2022-10-25T10:41:24.578Z,3200.00
2022-10-25T10:42:24.632Z,3568.00
2022-10-25T10:43:24.581Z,3764.00
2022-10-25T10:44:24.564Z,3768.00
2022-10-25T10:45:24.520Z,3912.00
2022-10-25T10:46:24.507Z,4288.00
2022-10-25T10:47:24.517Z,5072.00
2022-10-25T10:48:24.479Z,5072.00
2022-10-25T10:49:24.506Z,4892.00
2022-10-25T10:50:24.484Z,4868.00
2022-10-25T10:51:43.112Z,4412.00
2022-10-25T10:52:24.429Z,4516.00
2022-10-25T10:53:24.410Z,5508.00
2022-10-25T10:54:24.402Z,5332.00
2022-10-25T10:55:24.385Z,5124.00
2022-10-25T10:56:24.370Z,4784.00
2022-10-25T10:57:24.360Z,5348.00
2022-10-25T10:58:24.366Z,5800.00
2022-10-25T10:59:24.355Z,6032.00
2022-10-25T11:00:24.325Z,5128.00
2022-10-25T11:01:24.418Z,6140.00
2022-10-25T11:02:24.619Z,5592.00
2022-10-25T11:03:24.277Z,3960.00
2022-10-25T11:04:26.247Z,4184.00
2022-10-25T11:05:24.262Z,4064.00
2022-10-25T11:06:24.240Z,3600.00
2022-10-25T11:07:24.224Z,4332.00
2022-10-25T11:08:24.233Z,3760.00
2022-10-25T11:09:24.203Z,4604.00
2022-10-25T11:10:24.190Z,4108.00
2022-10-25T11:11:24.204Z,4104.00
2022-10-25T11:12:24.162Z,4204.00
2022-10-25T11:13:24.158Z,3748.00
2022-10-25T11:14:24.141Z,4112.00
2022-10-25T11:15:24.128Z,4296.00
2022-10-25T11:16:27.205Z,4388.00
2022-10-25T11:17:24.096Z,4536.00
2022-10-25T11:18:24.125Z,4480.00
2022-10-25T11:19:24.096Z,3824.00
2022-10-25T11:20:24.063Z,3792.00
2022-10-25T11:21:24.048Z,4096.00
2022-10-25T11:22:24.115Z,3756.00
2022-10-25T11:23:24.034Z,3436.00
2022-10-25T11:24:24.034Z,2960.00
2022-10-25T11:25:23.994Z,2588.00
2022-10-25T11:26:24.013Z,2880.00
2022-10-25T11:27:23.969Z,2892.00
2022-10-25T11:28:23.957Z,2664.00
2022-10-25T11:29:23.971Z,2564.00
2022-10-25T11:30:23.935Z,3368.00
2022-10-25T11:31:23.950Z,2536.00
2022-10-25T11:32:23.960Z,7216.00
2022-10-25T11:33:23.891Z,9412.00
2022-10-25T11:34:23.882Z,8780.00
2022-10-25T11:35:23.890Z,2844.00
2022-10-25T11:36:23.866Z,2348.00
2022-10-25T11:37:23.837Z,22336.00
2022-10-25T11:38:24.216Z,4632.00
2022-10-25T11:39:23.822Z,3268.00
2022-10-25T11:40:23.844Z,7832.00
2022-10-25T11:41:23.790Z,3444.00
2022-10-25T11:43:23.763Z,4156.00
2022-10-25T11:44:23.753Z,3672.00
2022-10-25T11:45:23.769Z,3328.00
2022-10-25T11:46:23.728Z,2948.00
2022-10-25T11:47:23.712Z,3008.00
2022-10-25T11:48:23.731Z,3528.00
2022-10-25T11:49:23.689Z,3140.00
2022-10-25T11:50:23.695Z,3096.00
2022-10-25T11:51:23.668Z,2980.00
2022-10-25T11:52:23.651Z,2500.00
2022-10-25T11:53:23.638Z,2272.00
2022-10-25T11:54:23.703Z,2824.00
2022-10-25T11:55:23.613Z,2632.00
2022-10-25T11:56:23.600Z,1852.00
2022-10-25T11:57:23.611Z,1600.00
2022-10-25T11:58:23.581Z,1772.00
2022-10-25T11:59:23.557Z,2464.00
2022-10-25T12:00:23.613Z,2732.00
2022-10-25T12:01:23.625Z,2904.00
2022-10-25T12:02:23.564Z,2832.00
2022-10-25T12:03:23.531Z,3872.00
2022-10-25T12:04:26.905Z,4836.00
2022-10-25T12:05:23.515Z,3696.00
2022-10-25T12:06:23.467Z,3572.00
2022-10-25T12:07:23.451Z,2932.00
2022-10-25T12:08:23.446Z,2012.00
2022-10-25T12:09:23.427Z,1748.00
2022-10-25T12:10:23.551Z,1840.00
2022-10-25T12:11:23.408Z,2264.00
2022-10-25T12:12:23.392Z,1616.00
2022-10-25T12:13:23.377Z,1776.00
2022-10-25T12:14:23.363Z,1456.00
2022-10-25T12:15:23.389Z,1424.00
2022-10-25T12:16:23.334Z,1724.00
2022-10-25T12:17:23.323Z,2148.00
2022-10-25T12:18:26.106Z,2492.00
2022-10-25T12:19:23.294Z,2200.00
2022-10-25T12:20:23.352Z,2008.00
2022-10-25T12:21:23.270Z,2088.00
2022-10-25T12:22:23.284Z,2584.00
2022-10-25T12:23:23.239Z,2828.00
2022-10-25T12:24:23.226Z,3312.00
2022-10-25T12:25:23.212Z,3704.00
2022-10-25T12:26:23.302Z,3784.00
2022-10-25T12:27:23.189Z,3000.00
2022-10-25T12:28:23.174Z,2712.00
2022-10-25T12:29:23.160Z,2952.00
2022-10-25T12:30:23.218Z,3736.00
2022-10-25T12:31:23.132Z,4708.00
2022-10-25T12:32:23.121Z,3256.00
2022-10-25T12:33:23.164Z,2228.00
2022-10-25T12:34:23.094Z,1660.00
2022-10-25T12:35:23.078Z,1700.00
2022-10-25T12:36:23.068Z,1656.00
2022-10-25T12:37:23.059Z,1740.00
2022-10-25T12:38:23.040Z,1904.00
2022-10-25T12:39:23.062Z,1668.00
2022-10-25T12:41:22.995Z,1772.00
2022-10-25T12:42:23.087Z,1820.00
2022-10-25T12:43:23.010Z,1856.00
2022-10-25T12:44:22.959Z,2344.00
2022-10-25T12:45:22.943Z,2856.00
2022-10-25T12:46:22.939Z,2908.00
2022-10-25T12:47:22.915Z,2716.00